Accueil
METAR-TAF:

METAR-TAF

Aéroports :

Aéroport de Charleroi-Bruxelles-Sud

Charleroi, Belgique

latitude: 50-28N, longitude: 004-27E, altitude: 187 m

Observation

Le bulletin a été fait il y a 18 minutes, à 12:20 UTC
Vent 7 kt de sud-ouest, variant entre sud et ouest/sud-ouest
Température 7°C
Humidité 70%
Pression 1005 hPa
Visibilité 10 km ou plus
Quelques nuages à une hauteur de 3200 ft
Nuages fragmentés à une hauteur de 3500 ft

METAR: EBCI 061220Z 22007KT 170V240 9999 FEW032 BKN035 07/02 Q1005 NOSIG

Heure: 14:38 (12:38 UTC)

Prévision

Le bulletin a été fait il y a 1 heure et 28 minutes, à 11:10 UTC
Prévision valable du 06 à 12 UTC au 07 à 18 UTC
Vent 7 kt de sud-ouest
Visibilité 10 km ou plus
Nuages épars à une hauteur de 2500 ft
Nuages fragmentés à une hauteur de 4000 ft
Temporairement
du 06 à 12 UTC au 06 à 20 UTC
Visibilité: 4000 m
averses de pluie

TAF: EBCI 061110Z 0612/0718 22007KT 9999 SCT025 BKN040 TEMPO 0612/0620 4000 SHRA

Observations et prévisions météorologiques de plus de 4000 aéroports (messages METAR et TAF).

Les stations disponibles sont représentées par des disques jaunes et rouges sur la carte.

Passer la souris dessus pour voir le nom de la station.

Cliquer dessus pour voir les observations et prévisions météorologiques.

Pour changer de carte: cliquez sur les boutons verts avec une croix noire pour zoomer, sur le bouton vert avec un tiret pour effectuer un zoom arrière, ou sur les flèches vertes pour les cartes adjacentes.


METAR-TAF: